• Join FlightAware (Why Join?)
  • Login
  • US Flag 
11:43AM EDT


 

Airport Tracker/Info


-or-


 

Live Flight TrackerFlight Track Log ✈ FDX1570 ✈ 25-Jun-2013 ✈ KMEM - KALB

Flight Track Log - Related Links

Times and Time Zones

All times are in EDT time to prevent confusion due to time zone crossing. See the FDX1570 flight status page for this flight to view local times or setup timezone preferences in your user account.

Time Position Orientation Groundspeed Altitude Reporting Facility
EDT Latitude Longitude Course Direction KTS MPH feet Rate Location/Type
04:22AM 35.0000 -89.9667 165° South 176 203 2,000  Level KMEM
04:23AM 34.9500 -89.9500 165° South 240 276 3,600 2,280 Climbing KMEM
04:24AM 34.9500 -89.8667 90° East 302 348 6,300 2,940 Climbing KMEM
04:25AM 34.9833 -89.7833 64° Northeast 300 345 9,200 2,280 Climbing KMEM
04:26AM 35.0222 -89.6903 63° Northeast 326 375 11,000 1,440 Climbing Memphis Center
04:27AM 35.0653 -89.5783 65° Northeast 334 384 12,200 1,620 Climbing Memphis Center
04:28AM 35.1125 -89.4586 64° Northeast 372 428 14,300 1,980 Climbing Memphis Center
04:30AM 35.1924 -89.2987 59° Northeast  Level FlightAware Approximate
04:30AM 35.2106 -89.2108 59° Northeast 395 455 18,200  Level Memphis Center
04:31AM 35.2700 -89.0856 60° Northeast 411 473 20,000 1,740 Climbing Memphis Center
04:32AM 35.3333 -88.9622 58° Northeast 416 479 21,700 1,560 Climbing Memphis Center
04:33AM 35.3922 -88.8442 59° Northeast 436 502 23,200 1,680 Climbing Memphis Center
04:39AM 35.7730 -88.1010 59° Northeast 477 549 32,600 1,680 Climbing FlightAware
04:39AM 35.8290 -87.9930 57° Northeast 477 549 33,800 1,440 Climbing FlightAware
04:40AM 35.8750 -87.9000 59° Northeast 478 550 34,700 1,260 Climbing FlightAware
04:41AM 35.9240 -87.8000 59° Northeast 481 554 35,600 1,380 Climbing FlightAware
04:41AM 35.9710 -87.7090 57° Northeast 476 548 36,600 1,020 Climbing FlightAware
04:42AM 36.0190 -87.6120 59° Northeast 480 552 37,000 240 Climbing FlightAware
04:43AM 36.0710 -87.5080 58° Northeast 487 560 37,000  Level FlightAware
04:43AM 36.1180 -87.4130 58° Northeast 490 564 37,000  Level FlightAware
04:44AM 36.1700 -87.3130 57° Northeast 492 566 37,000  Level FlightAware
04:45AM 36.2290 -87.2100 55° Northeast 496 571 37,000  Level FlightAware
04:46AM 36.2830 -87.1200 53° Northeast 497 572 37,000  Level FlightAware
04:46AM 36.3420 -87.0190 54° Northeast 499 574 37,000  Level FlightAware
04:47AM 36.3990 -86.9250 53° Northeast 498 573 37,000  Level FlightAware
04:48AM 36.4610 -86.8220 53° Northeast 499 574 37,000  Level FlightAware
04:48AM 36.5170 -86.7270 54° Northeast 498 573 37,000  Level FlightAware
04:49AM 36.5730 -86.6300 54° Northeast 496 571 37,000  Level FlightAware
04:50AM 36.6250 -86.5420 54° Northeast 494 568 37,000  Level FlightAware
04:50AM 36.6840 -86.4440 53° Northeast 494 568 37,000  Level FlightAware
04:51AM 36.7460 -86.3360 54° Northeast 493 567 37,000  Level FlightAware
04:52AM 36.7850 -86.2700 54° Northeast 493 567 37,000  Level FlightAware
04:53AM 36.8570 -86.1440 54° Northeast 494 568 37,000  Level FlightAware ADS-B
04:53AM 36.8984 -86.0727 54° Northeast 490 564 37,000  Level FlightAware ADS-B
04:54AM 36.9392 -86.0018 54° Northeast 490 564 37,000  Level FlightAware ADS-B
04:54AM 36.9792 -85.9330 54° Northeast 489 563 37,000  Level FlightAware ADS-B
04:55AM 37.0232 -85.8572 54° Northeast 488 562 37,000  Level FlightAware ADS-B
04:55AM 37.0642 -85.7860 54° Northeast 489 563 37,000  Level FlightAware ADS-B
04:56AM 37.1047 -85.7147 55° Northeast 488 562 37,000  Level FlightAware ADS-B
04:56AM 37.1442 -85.6458 54° Northeast 488 562 37,000  Level FlightAware ADS-B
04:57AM 37.1849 -85.5742 54° Northeast 488 562 37,000  Level FlightAware ADS-B
04:57AM 37.2250 -85.5030 55° Northeast 488 562 37,000  Level FlightAware ADS-B
04:58AM 37.2653 -85.4318 55° Northeast 486 559 37,000  Level FlightAware ADS-B
04:58AM 37.3046 -85.3629 54° Northeast 486 559 37,000  Level FlightAware ADS-B
04:59AM 37.3439 -85.2939 54° Northeast 486 559 37,000  Level FlightAware ADS-B
04:59AM 37.3845 -85.2221 55° Northeast 487 560 37,000  Level FlightAware ADS-B
05:00AM 37.4250 -85.1504 55° Northeast 487 560 37,000  Level FlightAware ADS-B
05:00AM 37.4647 -85.0788 55° Northeast 486 559 37,000  Level FlightAware ADS-B
05:01AM 37.5039 -85.0096 54° Northeast 485 558 37,000  Level FlightAware ADS-B
05:01AM 37.5426 -84.9403 55° Northeast 484 557 37,000  Level FlightAware ADS-B
05:02AM 37.5824 -84.8690 55° Northeast 484 557 37,000  Level FlightAware ADS-B
05:02AM 37.6212 -84.7974 56° Northeast 484 557 37,000  Level FlightAware ADS-B
05:03AM 37.6598 -84.7282 55° Northeast 484 557 37,000  Level FlightAware ADS-B
05:03AM 37.6989 -84.6587 55° Northeast 484 557 37,000  Level FlightAware ADS-B
05:04AM 37.7399 -84.5844 55° Northeast 485 558 37,000  Level FlightAware ADS-B
05:04AM 37.7794 -84.5123 55° Northeast 486 559 37,000  Level FlightAware ADS-B
05:05AM 37.8200 -84.4399 55° Northeast 487 560 37,000  Level FlightAware ADS-B
05:05AM 37.8611 -84.3651 55° Northeast 487 560 37,000  Level FlightAware ADS-B
05:07AM 37.9360 -84.2290 55° Northeast 486 559 37,000  Level FlightAware
05:07AM 37.9780 -84.1510 56° Northeast 486 559 37,000  Level FlightAware
05:08AM 38.0290 -84.0600 55° Northeast 486 559 37,000  Level FlightAware
05:09AM 38.0680 -83.9880 55° Northeast 486 559 37,000  Level FlightAware
05:09AM 38.1210 -83.8930 55° Northeast 486 559 37,000  Level FlightAware
05:10AM 38.1600 -83.8210 55° Northeast 486 559 37,000  Level FlightAware
05:11AM 38.2240 -83.7060 55° Northeast 486 559 37,000  Level FlightAware
05:12AM 38.2630 -83.6340 55° Northeast 486 559 37,000  Level FlightAware
05:12AM 38.3760 -83.4110 57° Northeast 494 568 37,000  Level FlightAware
05:13AM 38.4400 -83.2880 56° Northeast 496 571 37,000  Level FlightAware
05:14AM 38.4950 -83.1830 56° Northeast 496 571 37,000  Level FlightAware
05:14AM 38.5460 -83.0880 56° Northeast 496 571 37,000  Level FlightAware
05:16AM 38.6540 -82.8810 56° Northeast 494 568 37,000  Level FlightAware
05:17AM 38.7090 -82.7740 57° Northeast 496 571 37,000  Level FlightAware
05:17AM 38.7610 -82.6760 56° Northeast 496 571 37,000  Level FlightAware
05:18AM 38.8060 -82.5880 57° Northeast 495 570 37,000  Level FlightAware
05:19AM 38.8640 -82.4760 56° Northeast 493 567 37,000  Level FlightAware
05:19AM 38.9190 -82.3680 57° Northeast 493 567 37,000  Level FlightAware
05:20AM 38.9700 -82.2680 57° Northeast 492 566 37,000  Level FlightAware
05:21AM 39.0280 -82.1580 56° Northeast 492 566 37,000  Level FlightAware
05:21AM 39.0780 -82.0580 57° Northeast 492 566 37,000  Level FlightAware
05:22AM 39.1270 -81.9620 57° Northeast 492 566 37,000  Level FlightAware
05:23AM 39.1770 -81.8620 57° Northeast 492 566 37,000  Level FlightAware
05:24AM 39.2360 -81.7460 57° Northeast 492 566 37,000  Level FlightAware
05:24AM 39.2870 -81.6450 57° Northeast 493 567 37,000  Level FlightAware
05:25AM 39.3370 -81.5470 57° Northeast 492 566 37,000  Level FlightAware
05:26AM 39.3920 -81.4360 57° Northeast 491 565 37,000  Level FlightAware
05:26AM 39.4450 -81.3290 57° Northeast 491 565 37,000  Level FlightAware
05:27AM 39.4940 -81.2310 57° Northeast 491 565 37,000  Level FlightAware
05:28AM 39.5410 -81.1360 57° Northeast 491 565 37,000  Level FlightAware
05:28AM 39.5740 -81.0670 58° Northeast 491 565 37,000  Level FlightAware
05:29AM 39.6300 -80.9550 57° Northeast 491 565 37,000  Level FlightAware
05:30AM 39.6830 -80.8490 57° Northeast 491 565 37,000  Level FlightAware
05:30AM 39.7330 -80.7440 58° Northeast 492 566 37,000  Level FlightAware
05:31AM 39.7830 -80.6420 57° Northeast 491 565 37,000  Level FlightAware
05:32AM 39.8360 -80.5340 57° Northeast 489 563 37,000  Level FlightAware
05:32AM 39.8790 -80.4420 59° Northeast 488 562 37,000  Level FlightAware
05:33AM 39.9350 -80.3280 57° Northeast 487 560 37,000  Level FlightAware
05:34AM 39.9860 -80.2210 58° Northeast 485 558 37,000  Level FlightAware
05:35AM 40.0350 -80.1200 58° Northeast 485 558 37,000  Level FlightAware
05:35AM 40.0830 -80.0180 58° Northeast 483 556 37,000  Level FlightAware
05:36AM 40.1340 -79.9110 58° Northeast 483 556 37,000  Level FlightAware
05:37AM 40.1860 -79.8050 57° Northeast 484 557 37,000  Level FlightAware
05:37AM 40.2300 -79.7100 59° Northeast 483 556 37,000  Level FlightAware
05:38AM 40.2750 -79.6130 59° Northeast 483 556 37,000  Level FlightAware
05:39AM 40.3230 -79.5110 58° Northeast 482 555 37,000  Level FlightAware
05:39AM 40.3710 -79.4120 58° Northeast 480 552 37,000  Level FlightAware
05:40AM 40.4220 -79.3030 58° Northeast 480 552 37,000  Level FlightAware
05:41AM 40.4720 -79.1930 59° Northeast 479 551 37,000  Level FlightAware
05:41AM 40.5200 -79.0890 59° Northeast 480 552 37,000  Level FlightAware
05:42AM 40.5660 -78.9890 59° Northeast 480 552 37,000  Level FlightAware
05:43AM 40.6450 -78.8170 59° Northeast 480 552 37,000  Level FlightAware
05:44AM 40.6940 -78.7140 58° Northeast 482 555 37,000  Level FlightAware
05:45AM 40.7310 -78.6310 60° Northeast 482 555 37,000  Level FlightAware
05:46AM 40.8000 -78.4800 59° Northeast 481 554 37,000  Level FlightAware
05:46AM 40.8630 -78.3410 59° Northeast 482 555 37,000  Level FlightAware
05:47AM 40.9070 -78.2420 60° Northeast 482 555 37,000  Level FlightAware
05:48AM 40.9540 -78.1390 59° Northeast 482 555 37,000  Level FlightAware
05:49AM 41.0040 -78.0270 59° Northeast 482 555 37,000  Level FlightAware
05:49AM 41.0500 -77.9230 60° Northeast 482 555 37,000  Level FlightAware
05:50AM 41.1157 -77.7754 59° Northeast 481 554 37,000 -180 Level FlightAware ADS-B
05:51AM 41.1511 -77.6945 60° Northeast 477 549 36,800 -720 Descending FlightAware ADS-B
05:51AM 41.1850 -77.6187 59° Northeast 477 549 36,300 -1,200 Descending FlightAware ADS-B
05:52AM 41.2232 -77.5330 59° Northeast 475 547 35,500 -1,920 Descending FlightAware ADS-B
05:53AM 41.2927 -77.3740 60° Northeast 477 549 33,300 -2,040 Descending FlightAware ADS-B
05:53AM 41.3389 -77.2677 60° Northeast 487 560 32,100 -1,980 Descending FlightAware ADS-B
05:54AM 41.3811 -77.1710 60° Northeast 497 572 30,800 -1,680 Descending FlightAware ADS-B
05:55AM 41.4431 -77.0296 60° Northeast 499 574 29,600 -1,320 Descending FlightAware ADS-B
05:55AM 41.4781 -76.9463 61° Northeast 499 574 29,000 -480 Descending FlightAware ADS-B
05:56AM 41.5374 -76.8089 60° Northeast 504 580 29,000  Level FlightAware ADS-B
05:57AM 41.5896 -76.6875 60° Northeast 504 580 29,000  Level FlightAware ADS-B
05:58AM 41.6258 -76.6035 60° Northeast 505 581 29,000  Level FlightAware ADS-B
05:58AM 41.6664 -76.5245 55° Northeast 503 579 29,000  Level FlightAware ADS-B
05:59AM 41.7161 -76.4675 41° Northeast 498 573 29,000  Level FlightAware ADS-B
05:59AM 41.7344 -76.4512 34° Northeast 497 572 29,000  Level FlightAware ADS-B
05:59AM 41.7947 -76.4063 29° Northeast 497 572 29,000  Level FlightAware ADS-B
06:00AM 41.8591 -76.3585 29° Northeast 496 571 29,000 -240 Level FlightAware ADS-B
06:01AM 41.9732 -76.2741 29° Northeast 496 571 28,700 -1,200 Descending FlightAware ADS-B
06:01AM 42.0460 -76.2210 28° Northeast 477 549 27,000 -2,820 Descending FlightAware
06:02AM 42.1160 -76.1670 30° Northeast 469 540 25,000 -3,000 Descending FlightAware
06:02AM 42.1550 -76.1220 41° Northeast 489 563 24,200 -1,020 Descending FlightAware
06:03AM 42.2030 -76.0080 60° Northeast 492 566 24,000 -180 Descending FlightAware
06:04AM 42.2430 -75.8910 65° Northeast 491 565 24,000  Level FlightAware
06:04AM 42.2860 -75.7660 65° Northeast 487 560 24,000  Level FlightAware
06:05AM 42.3130 -75.6540 72° East 484 557 24,000 -1,200 Level FlightAware
06:06AM 42.3450 -75.5220 72° East 492 566 22,400 -2,040 Descending FlightAware
06:06AM 42.3690 -75.4220 72° East 470 541 21,300 -1,800 Descending FlightAware
06:07AM 42.4000 -75.2930 72° East 460 529 19,900 -1,740 Descending FlightAware
06:08AM 42.4260 -75.1880 71° East 454 522 18,800 -1,140 Descending FlightAware
06:08AM 42.4470 -75.0990 72° East 450 518 18,500 -240 Descending FlightAware
06:09AM 42.4740 -74.9870 72° East 450 518 18,500  Level FlightAware
06:10AM 42.4930 -74.9050 73° East 450 518 18,500  Level FlightAware
06:11AM 42.5370 -74.7250 72° East 450 518 18,500  Level FlightAware
06:12AM 42.5570 -74.6380 73° East 450 518 18,500 -5,460 Level FlightAware
06:12AM 42.5858 -74.5156 73° East 354 407 11,600 -5,460 Descending Boston Center
06:13AM 42.5994 -74.4428 76° East 345 397 11,100 -1,380 Descending Boston Center
06:14AM 42.6164 -74.3106 80° East 322 371 9,300 -1,860 Descending Boston Center
06:15AM 42.6242 -74.2064 84° East 307 353 7,400 -2,040 Descending Boston Center
06:16AM 42.6344 -74.0825 84° East 307 353 5,300 -1,500 Descending Boston Center
06:17AM 42.6422 -73.9811 84° East 291 335 4,500 -900 Descending Boston Center
06:18AM 42.6436 -73.8711 89° East 219 252 3,400 -1,080 Descending Boston Center
06:19AM 42.6525 -73.8206 77° East 232 267 2,200 -1,200 Descending Boston Center
06:20AM 42.6986 -73.8044 14° North 125 144 1,100 -1,080 Descending Boston Center
06:25AM 42.7333 -73.8000 75° East  Level FlightAware Approximate